Time;durP1;ratioP1;P1;durP2;ratioP2;P2;SDS_P1;SDS_P2;PMS_P1;PMS_P2;Temp;Humidity;BMP_temperature;BMP_pressure;BME280_temperature;BME280_humidity;BME280_pressure;Samples;Min_cycle;Max_cycle;Signal;HPM_P1;HPM_P2
2022/10/04 00:01:50;;;;;;;7.43;3.60;;;10.60;99.90;;;10.69;nan;101429.13;4980960;28;20665;-65
2022/10/04 00:04:33;;;;;;;4.27;3.43;;;10.60;99.90;;;10.64;nan;101436.41;4991244;28;20721;-64
2022/10/04 00:07:23;;;;;;;6.03;4.23;;;10.60;99.90;;;10.50;nan;101431.13;4974588;28;20643;-66
2022/10/04 00:09:59;;;;;;;9.77;4.20;;;10.50;99.90;;;10.61;nan;101438.34;4975055;28;20603;-65
2022/10/04 00:12:48;;;;;;;5.40;4.10;;;10.50;99.90;;;10.43;nan;101431.59;4974547;28;21078;-63
2022/10/04 00:15:29;;;;;;;11.07;4.40;;;10.40;99.90;;;10.35;nan;101433.81;4972001;28;20638;-65
2022/10/04 00:18:10;;;;;;;7.20;4.87;;;10.40;99.90;;;10.36;nan;101425.91;4991086;28;20650;-65
2022/10/04 00:20:51;;;;;;;7.77;4.83;;;10.40;99.90;;;10.40;nan;101424.78;4992090;28;20734;-65
2022/10/04 00:23:36;;;;;;;5.63;4.33;;;10.40;99.90;;;10.44;nan;101425.44;4991686;28;21161;-66
2022/10/04 00:26:24;;;;;;;7.10;4.67;;;10.40;99.90;;;10.52;nan;101434.50;4990980;28;21002;-64
2022/10/04 00:28:52;;;;;;;7.73;4.90;;;10.40;99.90;;;10.52;nan;101436.28;4991164;28;21007;-65
2022/10/04 00:31:24;;;;;;;10.40;5.70;;;10.40;99.90;;;10.55;nan;101433.47;4974631;28;20630;-66
2022/10/04 00:34:17;;;;;;;5.73;3.83;;;10.40;99.90;;;10.51;nan;101429.38;4974380;28;20654;-65
2022/10/04 00:36:53;;;;;;;8.50;4.10;;;10.40;99.90;;;10.48;nan;101442.59;4992086;28;20637;-65
2022/10/04 00:39:32;;;;;;;6.53;4.70;;;10.40;99.90;;;10.49;nan;101445.13;4956841;28;20643;-65
2022/10/04 00:42:10;;;;;;;8.80;3.00;;;10.40;99.90;;;10.46;nan;101437.47;4992210;28;20727;-65
2022/10/04 00:44:59;;;;;;;5.50;3.13;;;10.40;99.90;;;10.38;nan;101434.47;4990806;28;20620;-65
2022/10/04 00:47:34;;;;;;;4.10;2.70;;;10.40;99.90;;;10.30;nan;101430.63;4972262;28;20650;-63
2022/10/04 00:50:37;;;;;;;8.10;4.53;;;10.30;99.90;;;10.27;nan;101426.44;4989624;28;20637;-64
2022/10/04 00:53:31;;;;;;;7.00;3.63;;;10.20;99.90;;;10.29;nan;101424.56;4972920;28;20658;-64
2022/10/04 00:56:02;;;;;;;6.30;3.93;;;10.20;99.90;;;10.24;nan;101415.34;4973788;28;20617;-64
2022/10/04 00:59:06;;;;;;;6.30;3.80;;;10.20;99.90;;;10.39;nan;101425.69;4990103;28;20629;-64
2022/10/04 01:01:36;;;;;;;7.23;4.50;;;10.20;99.90;;;10.32;nan;101413.97;4995359;28;20667;-63
2022/10/04 01:04:20;;;;;;;4.20;3.53;;;10.20;99.90;;;10.26;nan;101413.50;4975966;28;21039;-64
2022/10/04 01:06:47;;;;;;;6.27;4.60;;;10.10;99.90;;;10.26;nan;101406.50;4972917;28;20640;-64
2022/10/04 01:09:16;;;;;;;10.10;4.70;;;10.10;99.90;;;10.19;nan;101407.78;4990692;28;20630;-65
2022/10/04 01:11:55;;;;;;;6.30;4.20;;;10.10;99.90;;;10.29;nan;101406.31;4976876;28;21018;-65
2022/10/04 01:14:46;;;;;;;6.73;4.10;;;10.10;99.90;;;10.29;nan;101401.09;4975433;28;20601;-65
2022/10/04 01:17:13;;;;;;;9.10;4.17;;;10.10;99.90;;;10.27;nan;101404.72;4973150;28;20650;-64
2022/10/04 01:19:51;;;;;;;8.27;4.13;;;10.10;99.90;;;10.26;nan;101401.28;4956962;28;21186;-64
2022/10/04 01:22:34;;;;;;;6.20;4.27;;;10.10;99.90;;;10.29;nan;101397.63;4990885;28;20661;-63
2022/10/04 01:25:02;;;;;;;5.90;4.17;;;10.20;99.90;;;10.19;nan;101394.75;4971365;28;20637;-66
2022/10/04 01:27:38;;;;;;;12.73;4.30;;;10.10;99.90;;;10.21;nan;101394.66;4990563;28;20672;-65
2022/10/04 01:30:12;;;;;;;6.20;4.27;;;10.20;99.90;;;10.09;nan;101398.78;4991121;28;20638;-65
2022/10/04 01:32:39;;;;;;;8.00;4.07;;;10.10;99.90;;;10.02;nan;101394.84;4958397;28;20648;-65
2022/10/04 01:35:09;;;;;;;6.27;4.13;;;10.00;99.90;;;10.02;nan;101400.06;4973346;28;20630;-66
2022/10/04 01:37:38;;;;;;;8.00;5.17;;;10.00;99.90;;;10.07;nan;101392.81;4991874;28;21058;-66
2022/10/04 01:40:07;;;;;;;16.43;4.80;;;10.00;99.90;;;10.01;nan;101391.38;4994264;28;20642;-65
2022/10/04 01:42:40;;;;;;;6.70;4.47;;;10.00;99.90;;;9.97;nan;101389.03;4961213;28;20720;-64
2022/10/04 01:45:23;;;;;;;6.40;4.30;;;9.90;99.90;;;9.95;nan;101388.28;4977651;28;20691;-64
2022/10/04 01:48:01;;;;;;;6.70;4.27;;;9.90;99.90;;;9.97;nan;101376.00;4977773;28;20634;-65
2022/10/04 01:50:56;;;;;;;8.90;5.33;;;9.90;99.90;;;9.93;nan;101367.53;4977208;28;20645;-65
2022/10/04 01:53:30;;;;;;;8.93;5.20;;;9.90;99.90;;;9.90;nan;101375.53;4977197;28;20657;-64
2022/10/04 01:56:14;;;;;;;6.57;4.37;;;9.90;99.90;;;9.85;nan;101367.16;4976895;28;21204;-64
2022/10/04 01:58:50;;;;;;;4.97;3.70;;;9.90;99.90;;;9.87;nan;101360.06;4977483;28;20629;-64
2022/10/04 02:01:33;;;;;;;9.03;5.20;;;9.90;99.90;;;9.86;nan;101361.00;4978968;28;20719;-65
2022/10/04 02:04:17;;;;;;;7.60;5.00;;;9.80;99.90;;;9.92;nan;101370.25;4996847;28;21037;-65
2022/10/04 02:06:53;;;;;;;6.97;4.10;;;9.80;99.90;;;9.81;nan;101362.19;4982017;28;20697;-64
2022/10/04 02:09:30;;;;;;;8.23;4.60;;;9.80;99.90;;;9.90;nan;101361.66;4978017;28;20637;-64
2022/10/04 02:11:58;;;;;;;7.77;4.27;;;9.80;99.90;;;9.89;nan;101362.59;4960824;28;20635;-65
2022/10/04 02:14:32;;;;;;;9.83;5.10;;;9.80;99.90;;;9.86;nan;101360.16;4976931;28;21010;-65
2022/10/04 02:17:02;;;;;;;7.50;4.27;;;9.80;99.90;;;9.77;nan;101353.72;4994363;28;20639;-65
2022/10/04 02:19:39;;;;;;;6.77;4.50;;;9.70;99.90;;;9.63;nan;101345.81;4976908;28;21226;-65
2022/10/04 02:22:09;;;;;;;8.47;4.77;;;9.60;99.90;;;9.49;nan;101347.53;4976457;28;21314;-65
2022/10/04 02:24:41;;;;;;;4.70;3.70;;;9.60;99.90;;;9.65;nan;101341.38;4961357;28;20741;-65
2022/10/04 02:27:08;;;;;;;5.23;3.57;;;9.60;99.90;;;9.75;nan;101336.47;4976397;28;20623;-64
2022/10/04 02:29:35;;;;;;;3.90;2.97;;;9.60;99.90;;;9.66;nan;101330.03;4993269;28;20645;-65
2022/10/04 02:34:56;;;;;;;5.07;3.57;;;9.60;99.90;;;9.61;nan;101321.63;4978545;28;20623;-65
2022/10/04 02:37:26;;;;;;;5.33;3.33;;;9.60;99.90;;;9.70;nan;101330.69;4975491;28;20677;-64
2022/10/04 02:40:13;;;;;;;5.43;3.50;;;9.60;99.90;;;9.65;nan;101325.72;4977065;28;20636;-64
2022/10/04 02:43:01;;;;;;;6.67;4.60;;;9.50;99.90;;;9.72;nan;101328.81;4975713;28;20659;-65
2022/10/04 02:45:43;;;;;;;4.93;3.40;;;9.60;99.90;;;9.70;nan;101326.31;4956616;28;20659;-65
2022/10/04 02:48:34;;;;;;;6.20;4.00;;;9.60;99.90;;;9.71;nan;101327.16;4991989;28;21428;-65
2022/10/04 02:51:32;;;;;;;5.83;3.70;;;9.60;99.90;;;9.69;nan;101323.81;4975197;28;21181;-66
2022/10/04 02:54:06;;;;;;;5.17;3.77;;;9.60;99.90;;;9.59;nan;101318.28;4974337;28;20724;-65
2022/10/04 02:56:34;;;;;;;4.93;3.53;;;9.50;99.90;;;9.70;nan;101318.50;4993028;28;20655;-66
2022/10/04 02:59:04;;;;;;;7.10;4.37;;;9.50;99.90;;;9.64;nan;101323.22;4977063;28;20620;-64
2022/10/04 03:02:01;;;;;;;13.43;4.83;;;9.50;99.90;;;9.62;nan;101315.50;4978402;28;21020;-65
2022/10/04 03:04:37;;;;;;;10.40;4.77;;;9.50;99.90;;;9.66;nan;101318.75;4966297;28;20648;-64
2022/10/04 03:07:07;;;;;;;6.57;4.00;;;9.50;99.90;;;9.65;nan;101317.06;4974879;28;21013;-64
2022/10/04 03:09:36;;;;;;;4.73;3.73;;;9.50;99.90;;;9.79;nan;101330.16;4976618;28;20614;-65
2022/10/04 03:12:04;;;;;;;8.20;4.00;;;9.60;99.90;;;9.71;nan;101319.34;4990565;28;20625;-64
2022/10/04 03:14:33;;;;;;;6.70;4.13;;;9.60;99.90;;;9.57;nan;101320.13;4959099;28;20637;-65
2022/10/04 03:17:02;;;;;;;6.87;3.50;;;9.60;99.90;;;9.54;nan;101307.25;4976333;28;20656;-66
2022/10/04 03:19:31;;;;;;;3.83;3.37;;;9.50;99.90;;;9.63;nan;101313.72;4969348;28;20640;-64
2022/10/04 03:22:06;;;;;;;4.80;3.53;;;9.50;99.90;;;9.52;nan;101313.50;4991128;28;20668;-65
2022/10/04 03:24:42;;;;;;;4.93;3.63;;;9.50;99.90;;;9.49;nan;101306.69;4976381;28;20629;-64
2022/10/04 03:27:18;;;;;;;4.40;3.30;;;9.50;99.90;;;9.44;nan;101313.94;4974887;28;20637;-64
2022/10/04 03:29:45;;;;;;;4.83;3.67;;;9.40;99.90;;;9.56;nan;101307.19;4993530;28;20635;-64
2022/10/04 03:32:15;;;;;;;5.63;4.17;;;9.50;99.90;;;9.50;nan;101313.56;4975112;28;20621;-62
2022/10/04 03:34:55;;;;;;;5.80;3.67;;;9.50;99.90;;;9.55;nan;101315.91;4960201;28;20644;-63
2022/10/04 03:37:24;;;;;;;4.67;3.60;;;9.50;99.90;;;9.53;nan;101310.81;4991938;28;21167;-62
2022/10/04 03:39:54;;;;;;;4.10;3.40;;;9.50;99.90;;;9.60;nan;101314.75;4975580;28;20632;-64
2022/10/04 03:42:25;;;;;;;3.83;3.53;;;9.50;99.90;;;9.59;nan;101313.06;4993059;28;20676;-63
2022/10/04 03:45:02;;;;;;;4.03;3.30;;;9.50;99.90;;;9.54;nan;101303.84;4972049;28;20641;-64
2022/10/04 03:47:43;;;;;;;3.50;3.20;;;9.50;99.90;;;9.57;nan;101311.47;4992021;28;20633;-64
2022/10/04 03:50:25;;;;;;;3.50;3.00;;;9.50;99.90;;;9.60;nan;101309.53;4991622;28;21430;-64
2022/10/04 03:53:06;;;;;;;3.83;3.50;;;9.50;99.90;;;9.43;nan;101308.81;4959659;28;20644;-64
2022/10/04 03:55:39;;;;;;;4.33;3.07;;;9.40;99.90;;;9.23;nan;101313.38;4974396;28;20635;-64
2022/10/04 03:58:10;;;;;;;4.30;3.87;;;9.30;99.90;;;9.33;nan;101314.53;4974859;28;20621;-64
2022/10/04 04:00:44;;;;;;;5.07;3.53;;;9.30;99.90;;;9.39;nan;101319.38;4959387;28;20639;-64
2022/10/04 04:03:18;;;;;;;4.83;3.63;;;9.30;99.90;;;9.53;nan;101316.00;4983970;28;20665;-64
2022/10/04 04:05:53;;;;;;;4.83;4.20;;;9.40;99.90;;;9.58;nan;101318.38;4974319;28;21188;-64
2022/10/04 04:08:30;;;;;;;5.77;4.30;;;9.50;99.90;;;9.59;nan;101325.25;4990829;28;20631;-63
2022/10/04 04:11:01;;;;;;;6.47;4.73;;;9.50;99.90;;;9.62;nan;101320.72;4974291;28;20635;-63
2022/10/04 04:13:53;;;;;;;6.27;4.63;;;9.50;99.90;;;9.64;nan;101325.81;4974019;28;20668;-61
2022/10/04 04:16:25;;;;;;;6.50;4.20;;;9.50;99.90;;;9.56;nan;101333.25;4984972;28;20635;-63
2022/10/04 04:18:54;;;;;;;6.70;4.20;;;9.50;99.90;;;9.67;nan;101333.47;4974172;28;20641;-63
2022/10/04 04:21:25;;;;;;;7.00;4.30;;;9.50;99.90;;;9.77;nan;101329.41;4959673;28;20662;-64
2022/10/04 04:24:04;;;;;;;5.37;3.90;;;9.60;99.90;;;9.78;nan;101325.88;4975123;28;20656;-64
2022/10/04 04:26:44;;;;;;;4.40;3.70;;;9.60;99.90;;;9.71;nan;101330.59;4976235;28;20609;-64
2022/10/04 04:29:46;;;;;;;3.90;3.50;;;9.60;99.90;;;9.67;nan;101333.47;4973959;28;21056;-64
2022/10/04 04:32:31;;;;;;;5.37;3.83;;;9.60;99.90;;;9.76;nan;101327.72;4990440;28;20639;-65
2022/10/04 04:35:09;;;;;;;6.70;4.07;;;9.60;99.90;;;9.77;nan;101326.81;4989317;28;21232;-62
2022/10/04 04:37:37;;;;;;;9.80;4.40;;;9.70;99.90;;;9.74;nan;101332.19;4974529;28;20648;-64
2022/10/04 04:40:31;;;;;;;5.17;4.20;;;9.70;99.90;;;9.77;nan;101327.66;4990601;28;20627;-62
2022/10/04 04:43:01;;;;;;;5.77;3.93;;;9.60;99.90;;;9.71;nan;101327.97;4989833;28;20699;-64
2022/10/04 04:45:31;;;;;;;9.00;5.00;;;9.70;99.90;;;9.75;nan;101339.09;4984307;28;20638;-64
2022/10/04 04:48:00;;;;;;;6.67;4.13;;;9.70;99.90;;;9.75;nan;101339.91;4968373;28;20705;-62
2022/10/04 04:50:35;;;;;;;8.30;4.93;;;9.70;99.90;;;9.76;nan;101335.53;4990989;28;20625;-64
2022/10/04 04:53:21;;;;;;;5.77;4.00;;;9.70;99.90;;;9.70;nan;101326.31;4990192;28;20642;-62
2022/10/04 04:55:54;;;;;;;4.50;3.17;;;9.70;99.90;;;9.75;nan;101329.47;4991854;28;20635;-64
2022/10/04 04:58:35;;;;;;;6.30;4.27;;;9.70;99.90;;;9.78;nan;101318.91;4975166;28;20645;-63
2022/10/04 05:01:17;;;;;;;4.47;3.60;;;9.70;99.90;;;9.77;nan;101321.59;4991107;28;20644;-63
2022/10/04 05:03:44;;;;;;;5.90;3.80;;;9.70;99.90;;;9.72;nan;101313.19;4974419;28;21364;-64
2022/10/04 05:07:01;;;;;;;5.17;3.80;;;9.70;99.90;;;9.71;nan;101312.34;4957914;28;20629;-64
2022/10/04 05:09:32;;;;;;;7.37;4.07;;;9.60;99.90;;;9.70;nan;101312.44;4986843;28;21236;-63
2022/10/04 05:12:18;;;;;;;6.90;4.30;;;9.70;99.90;;;9.81;nan;101318.72;4973627;28;20641;-63
2022/10/04 05:14:51;;;;;;;11.47;4.90;;;9.70;99.90;;;9.88;nan;101312.22;5003992;28;20643;-63
2022/10/04 05:17:22;;;;;;;7.30;4.30;;;9.70;99.90;;;9.94;nan;101311.03;4994180;28;20682;-64
2022/10/04 05:19:50;;;;;;;5.30;3.50;;;9.80;99.90;;;9.95;nan;101312.69;4970006;28;20641;-64
2022/10/04 05:22:21;;;;;;;4.90;3.53;;;9.80;99.90;;;9.96;nan;101312.63;4989315;28;20665;-63
2022/10/04 05:24:55;;;;;;;5.43;3.70;;;9.80;99.90;;;10.04;nan;101317.38;4974660;28;20626;-64
2022/10/04 05:27:41;;;;;;;4.80;3.10;;;9.80;99.90;;;10.03;nan;101313.06;4984257;28;20639;-63
2022/10/04 05:30:31;;;;;;;3.50;3.20;;;9.80;99.90;;;10.11;nan;101305.69;4974569;28;20638;-64
2022/10/04 05:33:07;;;;;;;5.63;4.10;;;9.80;99.90;;;10.11;nan;101305.69;4989378;28;23840;-64
2022/10/04 05:36:18;;;;;;;6.00;4.07;;;9.90;99.90;;;10.06;nan;101305.94;4973738;28;20630;-64
2022/10/04 05:39:20;;;;;;;4.67;2.87;;;9.80;99.90;;;10.02;nan;101301.00;4989203;28;20646;-63
2022/10/04 05:42:01;;;;;;;4.63;3.10;;;9.80;99.90;;;10.04;nan;101310.41;4974596;28;20734;-63
2022/10/04 05:44:35;;;;;;;3.67;3.37;;;9.80;99.90;;;9.97;nan;101297.81;4990542;28;20606;-64
2022/10/04 05:47:06;;;;;;;5.23;3.03;;;9.70;99.90;;;9.97;nan;101303.88;4991874;28;20721;-64
2022/10/04 05:49:42;;;;;;;4.97;3.70;;;9.80;99.90;;;9.92;nan;101299.84;4973914;28;20640;-63
2022/10/04 05:52:35;;;;;;;4.30;3.13;;;9.70;99.90;;;10.00;nan;101300.25;4973774;28;21055;-64
2022/10/04 05:55:11;;;;;;;6.30;3.57;;;9.70;99.90;;;10.05;nan;101306.03;4973942;28;20663;-64
2022/10/04 05:58:09;;;;;;;5.60;3.70;;;9.80;99.90;;;10.07;nan;101296.34;4991098;28;20654;-63
2022/10/04 06:01:07;;;;;;;5.27;4.17;;;9.90;99.90;;;10.08;nan;101309.28;4990328;28;20631;-64
2022/10/04 06:04:19;;;;;;;11.67;4.40;;;9.90;99.90;;;10.00;nan;101308.06;4968533;28;20665;-64
2022/10/04 06:07:31;;;;;;;6.47;4.03;;;9.90;99.90;;;10.02;nan;101321.84;4985201;28;20642;-64
2022/10/04 06:10:27;;;;;;;7.63;4.57;;;9.90;99.90;;;10.03;nan;101336.53;4912215;29;20641;-63
2022/10/04 06:12:56;;;;;;;10.53;5.40;;;9.90;99.90;;;9.98;nan;101330.78;4914954;29;20672;-64
2022/10/04 06:15:58;;;;;;;7.20;4.97;;;9.80;99.90;;;9.92;nan;101333.75;4971116;28;20641;-64
2022/10/04 06:18:27;;;;;;;9.00;5.73;;;9.80;99.90;;;9.87;nan;101326.19;4946028;28;20656;-63
2022/10/04 06:21:22;;;;;;;8.90;5.10;;;9.80;99.90;;;9.84;nan;101338.53;4990382;28;20721;-64
2022/10/04 06:24:10;;;;;;;7.03;4.60;;;9.70;99.90;;;9.95;nan;101338.75;4991988;28;21000;-64
2022/10/04 06:27:09;;;;;;;5.13;3.73;;;9.70;99.90;;;10.10;nan;101340.47;4994047;28;20688;-64
2022/10/04 06:29:48;;;;;;;7.67;4.50;;;9.80;99.90;;;10.18;nan;101335.69;4968433;28;20652;-64
2022/10/04 06:32:56;;;;;;;7.77;4.40;;;9.90;99.90;;;10.34;nan;101333.84;4976823;28;20990;-64
2022/10/04 06:35:57;;;;;;;8.57;4.87;;;10.00;99.90;;;10.30;nan;101337.59;4992949;28;20665;-64
2022/10/04 06:38:56;;;;;;;10.50;6.30;;;10.00;99.90;;;10.39;nan;101342.22;4993409;28;20630;-64
2022/10/04 06:41:27;;;;;;;11.60;5.40;;;10.10;99.90;;;10.50;nan;101349.44;4994885;28;20958;-64
2022/10/04 06:44:17;;;;;;;5.93;3.87;;;10.20;99.90;;;10.58;nan;101337.59;4993866;28;20674;-64
2022/10/04 06:46:56;;;;;;;7.13;4.20;;;10.30;99.90;;;10.72;nan;101336.75;4961482;28;21004;-64
2022/10/04 06:49:33;;;;;;;7.70;3.30;;;10.40;99.90;;;10.89;nan;101329.56;4989536;28;20656;-64
2022/10/04 06:52:17;;;;;;;8.30;5.50;;;10.50;99.90;;;11.00;nan;101335.88;4987092;28;20631;-64
2022/10/04 06:55:20;;;;;;;8.37;4.93;;;10.60;99.90;;;11.09;nan;101341.38;4986694;28;21036;-64
2022/10/04 06:58:07;;;;;;;6.10;4.20;;;10.70;99.90;;;11.28;nan;101346.28;4989618;28;20635;-64
2022/10/04 07:00:51;;;;;;;11.77;5.73;;;10.80;99.90;;;11.45;nan;101343.41;4994005;28;20634;-63
2022/10/04 07:03:40;;;;;;;11.07;5.50;;;11.00;99.90;;;11.66;nan;101349.88;4987610;28;20669;-63
2022/10/04 07:06:10;;;;;;;7.60;4.40;;;11.10;99.90;;;11.79;nan;101350.78;4998326;28;20634;-64
2022/10/04 07:08:50;;;;;;;11.47;5.00;;;11.30;99.90;;;12.22;nan;101351.38;4975997;28;20627;-65
2022/10/04 07:11:23;;;;;;;11.17;5.80;;;11.50;99.90;;;12.58;nan;101353.28;4976227;28;20696;-63
2022/10/04 07:14:02;;;;;;;9.37;4.70;;;11.70;99.90;;;12.72;nan;101363.63;4975727;28;20658;-63
2022/10/04 07:16:48;;;;;;;9.43;5.30;;;11.90;99.90;;;12.65;nan;101365.00;4993751;28;20619;-64
2022/10/04 07:19:18;;;;;;;12.77;6.40;;;11.90;99.90;;;12.26;nan;101365.94;4990804;28;20654;-65
2022/10/04 07:22:01;;;;;;;15.40;8.00;;;11.80;99.90;;;12.07;nan;101368.94;4992969;28;21259;-64
2022/10/04 07:24:49;;;;;;;10.87;7.00;;;11.70;99.90;;;11.83;nan;101362.72;4992668;28;20630;-64
2022/10/04 07:27:29;;;;;;;11.90;5.80;;;11.60;99.90;;;11.88;nan;101355.41;4994001;28;20623;-64
2022/10/04 07:30:02;;;;;;;9.17;5.37;;;11.50;99.90;;;11.95;nan;101347.97;4974885;28;20634;-63
2022/10/04 07:32:35;;;;;;;14.07;6.37;;;11.50;99.90;;;12.08;nan;101351.47;4980538;28;20702;-64
2022/10/04 07:35:08;;;;;;;13.97;7.43;;;11.50;99.90;;;12.17;nan;101361.31;4990619;28;20661;-63
2022/10/04 07:38:09;;;;;;;18.60;9.63;;;11.60;99.90;;;12.13;nan;101363.31;4991790;28;20643;-64
2022/10/04 07:40:40;;;;;;;14.90;7.90;;;11.60;99.90;;;12.14;nan;101367.59;4976461;28;20688;-64
2022/10/04 07:43:27;;;;;;;17.70;8.40;;;11.70;99.90;;;12.18;nan;101370.84;4976445;28;20665;-64
2022/10/04 07:46:14;;;;;;;12.70;6.70;;;11.70;99.90;;;12.42;nan;101366.56;4969309;28;21223;-64
2022/10/04 07:48:41;;;;;;;14.10;7.60;;;11.80;99.90;;;12.51;nan;101363.31;4992132;28;21224;-64
2022/10/04 07:51:38;;;;;;;11.33;6.60;;;11.90;99.90;;;12.80;nan;101364.78;4981989;28;21222;-64
2022/10/04 07:54:21;;;;;;;13.37;7.03;;;12.00;99.90;;;13.08;nan;101371.56;4974226;28;20669;-64
2022/10/04 07:57:07;;;;;;;9.60;5.90;;;12.20;99.90;;;13.32;nan;101377.69;4975520;28;20631;-64
2022/10/04 07:59:47;;;;;;;13.97;6.80;;;12.30;99.90;;;13.33;nan;101368.88;4976235;28;20649;-64
2022/10/04 08:02:45;;;;;;;9.10;5.30;;;12.40;99.90;;;13.48;nan;101361.72;4968857;28;20680;-64
2022/10/04 08:05:40;;;;;;;12.93;6.60;;;12.50;99.90;;;13.52;nan;101368.41;4993240;28;21228;-64
2022/10/04 08:08:28;;;;;;;14.80;7.30;;;12.60;99.90;;;13.70;nan;101365.28;4967957;28;20685;-62
2022/10/04 08:11:12;;;;;;;12.13;5.67;;;12.70;99.90;;;13.99;nan;101371.00;4974549;28;20627;-64
2022/10/04 08:13:55;;;;;;;15.80;6.13;;;12.90;99.90;;;14.17;nan;101368.75;4986253;28;20728;-63
2022/10/04 08:16:54;;;;;;;12.47;7.00;;;13.00;99.90;;;14.50;nan;101363.63;4990621;28;20716;-63
2022/10/04 08:19:23;;;;;;;11.87;6.27;;;13.20;99.90;;;14.85;nan;101359.09;4991600;28;20633;-63
2022/10/04 08:22:04;;;;;;;13.70;6.30;;;13.40;99.90;;;15.35;nan;101355.09;4989897;28;20638;-62
2022/10/04 08:24:41;;;;;;;16.80;7.90;;;13.80;99.90;;;15.85;nan;101353.63;4990649;28;20646;-63
2022/10/04 08:31:12;;;;;;;14.27;6.60;;;14.40;99.90;;;16.06;nan;101357.09;4960664;28;20648;-64
2022/10/04 08:34:20;;;;;;;17.83;7.40;;;14.60;99.90;;;15.86;nan;101353.53;4980760;28;20654;-62
2022/10/04 08:37:14;;;;;;;17.67;8.57;;;14.60;99.90;;;15.63;nan;101343.22;4982682;28;20705;-62
2022/10/04 08:40:22;;;;;;;20.07;7.67;;;14.60;99.90;;;15.40;nan;101342.41;4982631;28;21007;-63
2022/10/04 08:43:39;;;;;;;21.20;8.03;;;14.60;99.90;;;15.59;nan;101349.69;4983224;28;21161;-63
2022/10/04 08:46:39;;;;;;;20.33;8.70;;;14.60;99.90;;;15.90;nan;101347.03;4978309;28;21230;-63
2022/10/04 08:49:34;;;;;;;13.70;6.03;;;14.80;99.90;;;16.40;nan;101348.03;4972739;28;20612;-63
2022/10/04 08:52:57;;;;;;;22.77;10.60;;;15.10;99.90;;;18.44;nan;101353.47;4986547;28;20635;-63
2022/10/04 08:56:13;;;;;;;31.47;12.53;;;15.90;99.90;;;21.28;nan;101356.66;4926915;29;20689;-63
2022/10/04 08:59:08;;;;;;;24.30;11.80;;;17.60;99.90;;;21.50;nan;101361.34;4991817;28;21004;-64
2022/10/04 09:02:19;;;;;;;24.97;11.17;;;18.60;99.90;;;22.84;nan;101362.47;4990487;28;20662;-63
2022/10/04 09:05:11;;;;;;;28.97;12.20;;;19.30;99.90;;;25.85;nan;101350.38;4971986;28;20638;-63
2022/10/04 09:08:24;;;;;;;23.73;12.77;;;21.00;99.90;;;27.19;nan;101357.06;4982239;28;20632;-61
2022/10/04 09:11:30;;;;;;;18.40;10.30;;;22.40;99.90;;;28.79;nan;101350.53;4973440;28;20634;-62
2022/10/04 09:14:39;;;;;;;20.77;10.77;;;23.80;95.70;;;30.24;nan;101346.75;4987168;28;20658;-64
2022/10/04 09:17:19;;;;;;;19.43;10.50;;;24.80;92.60;;;31.42;nan;101348.09;4960904;28;20623;-62
2022/10/04 09:20:32;;;;;;;17.13;10.70;;;25.90;90.00;;;32.90;nan;101344.88;4990842;28;20631;-62
2022/10/04 09:23:29;;;;;;;20.60;12.53;;;27.00;84.50;;;34.58;nan;101350.28;4991607;23;21021;-65
2022/10/04 09:26:05;;;;;;;33.23;20.43;;;28.20;78.80;;;35.49;nan;101354.06;5012116;28;20618;-65
2022/10/04 09:29:08;;;;;;;17.17;10.13;;;29.10;73.30;;;35.70;nan;101339.59;4993631;28;21201;-67
2022/10/04 09:32:12;;;;;;;11.30;7.50;;;29.80;68.20;;;36.66;nan;101341.06;4993843;28;20621;-65
2022/10/04 09:35:36;;;;;;;9.00;8.00;;;30.70;64.50;;;35.99;nan;101331.97;5010052;28;20719;-65
2022/10/04 09:38:18;;;;;;;9.70;6.93;;;31.30;60.40;;;33.49;nan;101321.97;4987346;28;20687;-65
2022/10/04 09:41:02;;;;;;;8.57;6.97;;;30.10;60.80;;;34.29;nan;101333.31;5010957;28;21173;-64
2022/10/04 09:43:56;;;;;;;11.67;6.13;;;30.00;61.60;;;35.27;nan;101331.59;4992624;28;20681;-65
2022/10/04 09:46:47;;;;;;;10.87;6.67;;;30.20;60.70;;;35.32;nan;101337.03;4993815;28;20624;-64
2022/10/04 09:50:06;;;;;;;12.20;7.17;;;30.50;59.40;;;37.86;nan;101326.94;4998914;28;21201;-66
2022/10/04 09:53:07;;;;;;;6.57;5.90;;;31.50;58.10;;;40.02;nan;101332.38;4964464;28;21227;-65
2022/10/04 09:55:57;;;;;;;9.43;7.10;;;32.90;55.20;;;40.50;nan;101323.13;4964684;28;20637;-64
2022/10/04 09:58:42;;;;;;;7.60;6.07;;;33.70;54.20;;;39.58;nan;101323.50;4992068;28;20645;-65
2022/10/04 10:01:28;;;;;;;8.33;6.80;;;33.90;52.40;;;38.42;nan;101324.13;5015658;28;20633;-67
2022/10/04 10:04:51;;;;;;;8.73;7.10;;;33.50;52.10;;;39.88;nan;101334.16;4994901;28;20665;-66
2022/10/04 10:07:38;;;;;;;9.10;7.10;;;33.90;52.00;;;38.54;nan;101328.16;4997711;28;20630;-65
2022/10/04 10:13:43;;;;;;;13.20;5.40;;;33.10;52.20;;;37.14;nan;101313.50;5002451;28;20656;-64
2022/10/04 10:16:41;;;;;;;16.93;5.60;;;32.80;51.00;;;36.59;nan;101305.16;4998159;28;20687;-68
2022/10/04 10:19:52;;;;;;;7.43;5.40;;;32.20;51.90;;;36.21;nan;101313.63;4993791;28;20636;-64
2022/10/04 10:23:09;;;;;;;14.53;9.87;;;31.70;52.20;;;33.72;nan;101304.78;5014128;28;20660;-64
2022/10/04 10:25:58;;;;;;;8.60;4.90;;;31.10;51.80;;;31.06;nan;101302.34;5007609;28;21189;-65
2022/10/04 10:28:46;;;;;;;7.60;4.53;;;28.90;54.70;;;29.28;nan;101293.50;5013965;28;20691;-65
2022/10/04 10:31:30;;;;;;;6.80;5.00;;;27.50;57.20;;;27.81;nan;101296.97;5014859;28;21254;-64
2022/10/04 10:34:28;;;;;;;7.10;4.50;;;26.50;58.60;;;27.23;nan;101293.16;4997895;28;21028;-64
2022/10/04 10:37:03;;;;;;;5.00;4.10;;;25.50;61.20;;;26.23;nan;101294.75;5014984;28;21697;-64
2022/10/04 10:40:03;;;;;;;5.97;4.43;;;24.70;63.10;;;24.54;nan;101284.75;4997716;28;21185;-66
2022/10/04 10:43:17;;;;;;;11.40;4.60;;;23.80;65.60;;;22.71;nan;101292.16;4997087;28;21274;-65
2022/10/04 10:46:15;;;;;;;6.27;4.17;;;22.60;68.50;;;22.03;nan;101282.03;5014458;28;20633;-65
2022/10/04 10:49:33;;;;;;;17.43;4.37;;;21.80;71.50;;;21.39;nan;101279.34;5013690;28;20660;-64
2022/10/04 10:52:21;;;;;;;5.00;3.10;;;21.00;74.90;;;21.10;nan;101271.88;5006148;28;20633;-65
2022/10/04 10:55:32;;;;;;;3.27;2.97;;;20.60;77.70;;;20.52;nan;101279.75;5012922;28;20663;-65
2022/10/04 10:58:37;;;;;;;6.83;4.47;;;20.20;80.10;;;19.91;nan;101279.84;4999669;28;21192;-61
2022/10/04 11:01:30;;;;;;;5.93;3.73;;;19.60;85.10;;;19.46;nan;101281.81;5006600;28;20633;-64
2022/10/04 11:04:41;;;;;;;7.57;3.90;;;19.30;88.40;;;19.73;nan;101276.41;4995647;28;20681;-65
2022/10/04 11:07:41;;;;;;;3.93;3.47;;;19.10;90.90;;;19.45;nan;101276.63;4960545;28;20632;-64
2022/10/04 11:10:36;;;;;;;6.33;4.33;;;18.80;93.30;;;19.28;nan;101275.63;5006794;28;20638;-65
2022/10/04 11:13:38;;;;;;;7.10;4.20;;;18.70;95.40;;;19.28;nan;101278.28;5010288;28;20684;-66
2022/10/04 11:16:12;;;;;;;7.20;3.47;;;18.60;97.10;;;19.08;nan;101271.47;5012586;28;20630;-65
2022/10/04 11:19:27;;;;;;;7.87;3.67;;;18.50;99.40;;;18.91;nan;101274.94;4996560;28;20637;-63
2022/10/04 11:22:33;;;;;;;5.60;3.70;;;18.40;99.90;;;18.72;nan;101269.75;5013802;28;20641;-66
2022/10/04 11:25:07;;;;;;;9.00;3.30;;;18.20;99.90;;;18.44;nan;101268.91;5013664;28;21185;-65
2022/10/04 11:27:48;;;;;;;4.93;3.13;;;18.10;99.90;;;18.27;nan;101277.56;4993124;28;20630;-64
2022/10/04 11:30:25;;;;;;;6.43;3.97;;;17.90;99.90;;;18.31;nan;101271.84;4996134;28;21199;-64
2022/10/04 11:33:20;;;;;;;6.07;3.90;;;17.80;99.90;;;18.32;nan;101268.19;4996704;28;20622;-65
2022/10/04 11:36:02;;;;;;;6.03;3.27;;;17.80;99.90;;;18.35;nan;101270.56;4996843;28;20626;-64
2022/10/04 11:38:51;;;;;;;4.47;2.90;;;17.70;99.90;;;18.16;nan;101275.06;4983399;28;20629;-65
2022/10/04 11:41:55;;;;;;;9.37;3.70;;;17.70;99.90;;;18.01;nan;101265.94;4995489;28;21048;-65
2022/10/04 11:45:00;;;;;;;5.30;3.47;;;17.50;99.90;;;17.84;nan;101267.50;4994221;28;20739;-65
2022/10/04 11:47:56;;;;;;;4.50;2.90;;;17.50;99.90;;;17.31;nan;101263.63;4989460;28;20639;-64
2022/10/04 11:51:04;;;;;;;5.00;2.90;;;17.30;99.90;;;17.11;nan;101261.91;5003929;28;20735;-66
2022/10/04 11:54:20;;;;;;;4.03;2.87;;;17.00;99.90;;;17.25;nan;101264.16;4955777;28;20654;-65
2022/10/04 11:57:18;;;;;;;6.83;3.60;;;16.90;99.90;;;17.21;nan;101258.31;4976507;28;20646;-65